Forside
METAR-TAF:

METAR-TAF

Lufthavne :

Dehradun, Indien

Breddekreds: 30-11-23N, længdekreds: 78-10-49E, højde: 558 m

Aktuelle vejr

Denne rapport blev lavet for 6 timer og 37 minutter siden, kl. 14:00 UTC
Vind 3 kt fra nordøst
Temperatur 12°C
Fugtighed 76%
Tryk 1019 hPa
Sigt: 3000 m
Spredte skyer i en højde af 10000 ft
tåge/dis

METAR: VIDN 171400Z 04003KT 3000 HZ SCT100 12/08 Q1019

Tid: 02:07 (20:37 UTC)


TAF: fraværende

Vejrobservationer og prognoser fra mere end 4000 lufthavne (METAR og TAF).

De gule og røde prikker repræsenterer de meteorologiske stationer.

Flyt musen over at se navnet på stationen.

Så klik over at se vejr observationer og prognoser.

At skifte det kort: Klik på de grønne knapper med et sort kors for at zoome ind; på den grønne knap med en bindestreg for at zoome ud; eller på de grønne pile for tilstødende kort.


METAR-TAF: